createdAt,value
2023-02-09T00:00:14.848Z,6.17
2023-02-09T00:02:42.920Z,6.77
2023-02-09T00:05:10.891Z,6.30
2023-02-09T00:07:37.946Z,7.50
2023-02-09T00:10:05.987Z,7.07
2023-02-09T00:12:51.456Z,6.80
2023-02-09T00:15:18.544Z,6.60
2023-02-09T00:17:45.480Z,6.90
2023-02-09T00:20:12.624Z,6.33
2023-02-09T00:22:39.601Z,6.70
2023-02-09T00:25:07.029Z,7.70
2023-02-09T00:27:35.750Z,7.50
2023-02-09T00:30:05.036Z,7.17
2023-02-09T00:32:33.259Z,7.90
2023-02-09T00:35:00.213Z,6.67
2023-02-09T00:37:28.514Z,7.50
2023-02-09T00:39:55.482Z,6.70
2023-02-09T00:42:22.458Z,7.23
2023-02-09T00:44:50.250Z,7.33
2023-02-09T00:47:17.298Z,7.10
2023-02-09T00:49:44.279Z,7.77
2023-02-09T00:52:11.780Z,7.20
2023-02-09T00:54:39.023Z,7.50
2023-02-09T00:57:06.121Z,8.13
2023-02-09T00:59:35.416Z,7.40
2023-02-09T01:02:03.091Z,7.47
2023-02-09T01:04:30.225Z,7.83
2023-02-09T01:06:57.388Z,7.57
2023-02-09T01:09:25.140Z,9.00
2023-02-09T01:11:52.182Z,8.47
2023-02-09T01:14:19.329Z,7.93
2023-02-09T01:16:46.466Z,8.10
2023-02-09T01:19:14.238Z,7.90
2023-02-09T01:21:42.292Z,6.97
2023-02-09T01:24:13.768Z,8.77
2023-02-09T01:26:41.478Z,7.50
2023-02-09T01:29:11.699Z,8.30
2023-02-09T01:31:38.976Z,8.07
2023-02-09T01:34:06.151Z,7.90
2023-02-09T01:36:33.876Z,8.37
2023-02-09T01:39:02.637Z,8.27
2023-02-09T01:41:30.103Z,8.80
2023-02-09T01:44:03.681Z,8.83
2023-02-09T01:46:33.588Z,8.70
2023-02-09T01:49:26.748Z,8.10
2023-02-09T01:52:04.485Z,8.33
2023-02-09T01:54:47.410Z,8.57
2023-02-09T01:57:23.531Z,8.80
2023-02-09T02:00:05.267Z,8.00
2023-02-09T02:02:44.840Z,8.40
2023-02-09T02:05:12.558Z,8.87
2023-02-09T02:07:49.242Z,8.17
2023-02-09T02:10:16.340Z,8.90
2023-02-09T02:12:43.849Z,8.93
2023-02-09T02:15:12.299Z,8.83
2023-02-09T02:17:45.138Z,8.63
2023-02-09T02:20:40.313Z,8.70
2023-02-09T02:23:35.479Z,9.40
2023-02-09T02:26:59.935Z,7.90
2023-02-09T02:30:03.240Z,9.00
2023-02-09T02:32:49.433Z,8.70
2023-02-09T02:35:43.190Z,9.20
2023-02-09T02:38:42.579Z,9.87
2023-02-09T02:41:12.520Z,9.53
2023-02-09T02:43:45.025Z,8.17
2023-02-09T02:46:39.030Z,9.17
2023-02-09T02:49:10.585Z,9.10
2023-02-09T02:51:43.136Z,9.17
2023-02-09T02:54:16.664Z,9.00
2023-02-09T02:56:49.671Z,9.13
2023-02-09T02:59:22.293Z,8.10
2023-02-09T03:02:00.943Z,9.03
2023-02-09T03:04:30.546Z,7.87
2023-02-09T03:06:57.562Z,9.17
2023-02-09T03:09:24.680Z,9.60
2023-02-09T03:11:56.229Z,9.10
2023-02-09T03:14:41.842Z,9.90
2023-02-09T03:17:46.041Z,8.47
2023-02-09T03:20:45.273Z,9.07
2023-02-09T03:23:26.766Z,9.33
2023-02-09T03:25:56.204Z,8.93
2023-02-09T03:28:28.773Z,9.90
2023-02-09T03:30:57.669Z,9.73
2023-02-09T03:33:29.504Z,9.70
2023-02-09T03:35:59.023Z,8.90
2023-02-09T03:38:26.847Z,9.90
2023-02-09T03:40:54.651Z,8.03
2023-02-09T03:43:41.508Z,9.07
2023-02-09T03:46:09.987Z,9.70
2023-02-09T03:48:37.077Z,9.40
2023-02-09T03:51:06.724Z,8.63
2023-02-09T03:53:36.469Z,9.03
2023-02-09T03:56:09.589Z,8.57
2023-02-09T03:58:37.156Z,8.57
2023-02-09T04:01:06.127Z,9.13
2023-02-09T04:03:33.895Z,8.53
2023-02-09T04:06:01.810Z,8.80
2023-02-09T04:08:30.144Z,8.57
2023-02-09T04:10:57.890Z,8.67
2023-02-09T04:13:25.639Z,8.97
2023-02-09T04:15:53.250Z,8.63
2023-02-09T04:18:20.640Z,8.97
2023-02-09T04:20:48.024Z,8.50
2023-02-09T04:23:15.420Z,8.07
2023-02-09T04:25:42.577Z,8.60
2023-02-09T04:28:09.644Z,8.83
2023-02-09T04:30:36.774Z,8.60
2023-02-09T04:33:04.210Z,8.53
2023-02-09T04:35:31.149Z,9.23
2023-02-09T04:37:58.092Z,8.90
2023-02-09T04:40:25.062Z,7.83
2023-02-09T04:42:52.111Z,8.47
2023-02-09T04:45:19.285Z,8.20
2023-02-09T04:47:46.301Z,8.63
2023-02-09T04:50:13.264Z,7.90
2023-02-09T04:52:40.229Z,7.67
2023-02-09T04:55:07.361Z,9.53
2023-02-09T04:57:52.729Z,9.00
2023-02-09T05:00:19.943Z,8.00
2023-02-09T05:02:46.847Z,8.53
2023-02-09T05:05:13.827Z,7.90
2023-02-09T05:07:40.871Z,8.83
2023-02-09T05:10:08.168Z,8.10
2023-02-09T05:12:35.085Z,8.43
2023-02-09T05:15:02.209Z,8.63
2023-02-09T05:17:31.855Z,7.27
2023-02-09T05:19:59.347Z,7.70
2023-02-09T05:22:27.017Z,8.87
2023-02-09T05:24:53.983Z,7.73
2023-02-09T05:27:20.933Z,8.23
2023-02-09T05:29:48.079Z,7.67
2023-02-09T05:32:15.157Z,8.10
2023-02-09T05:34:42.183Z,7.37
2023-02-09T05:37:09.154Z,7.30
2023-02-09T05:39:36.259Z,7.77
2023-02-09T05:42:15.365Z,7.20
2023-02-09T05:44:43.910Z,7.80
2023-02-09T05:47:11.621Z,7.43
2023-02-09T05:49:38.853Z,7.43
2023-02-09T05:52:06.293Z,8.73
2023-02-09T05:54:33.350Z,7.43
2023-02-09T05:57:00.582Z,7.03
2023-02-09T05:59:27.699Z,8.80
2023-02-09T06:01:54.776Z,7.60
2023-02-09T06:04:21.888Z,7.10
2023-02-09T06:06:48.877Z,7.37
2023-02-09T06:09:15.858Z,8.00
2023-02-09T06:11:42.827Z,7.93
2023-02-09T06:14:10.668Z,8.23
2023-02-09T06:16:37.937Z,7.77
2023-02-09T06:19:04.986Z,7.27
2023-02-09T06:21:31.934Z,8.00
2023-02-09T06:23:59.032Z,7.90
2023-02-09T06:26:26.010Z,8.43
2023-02-09T06:28:53.030Z,7.50
2023-02-09T06:31:20.091Z,8.47
2023-02-09T06:33:47.230Z,6.80
2023-02-09T06:36:14.171Z,8.27
2023-02-09T06:38:41.249Z,8.33
2023-02-09T06:41:08.284Z,7.87
2023-02-09T06:43:35.614Z,8.77
2023-02-09T06:46:11.334Z,7.97
2023-02-09T06:48:39.731Z,7.27
2023-02-09T06:51:14.774Z,7.80
2023-02-09T06:53:42.823Z,7.93
2023-02-09T06:56:10.845Z,7.80
2023-02-09T06:58:38.392Z,7.73
2023-02-09T07:01:07.375Z,7.37
2023-02-09T07:03:34.782Z,7.93
2023-02-09T07:06:12.444Z,8.37
2023-02-09T07:08:41.075Z,8.63
2023-02-09T07:11:10.908Z,7.37
2023-02-09T07:13:38.380Z,7.37
2023-02-09T07:16:07.629Z,8.90
2023-02-09T07:18:34.728Z,7.93
2023-02-09T07:21:08.766Z,7.87
2023-02-09T07:23:36.669Z,8.47
2023-02-09T07:26:10.610Z,7.93
2023-02-09T07:28:37.995Z,7.93
2023-02-09T07:31:08.393Z,7.60
2023-02-09T07:33:36.496Z,8.20
2023-02-09T07:36:04.922Z,7.33
2023-02-09T07:38:32.282Z,7.40
2023-02-09T07:41:01.139Z,7.37
2023-02-09T07:43:28.800Z,7.47
2023-02-09T07:46:07.212Z,8.10
2023-02-09T07:48:34.613Z,8.17
2023-02-09T07:51:02.409Z,8.20
2023-02-09T07:53:29.854Z,7.37
2023-02-09T07:55:57.609Z,7.00
2023-02-09T07:58:24.845Z,8.47
2023-02-09T08:00:52.144Z,7.80
2023-02-09T08:03:22.465Z,7.37
2023-02-09T08:06:02.715Z,7.73
2023-02-09T08:08:30.339Z,7.77
2023-02-09T08:10:59.456Z,7.83
2023-02-09T08:13:31.143Z,6.80
2023-02-09T08:16:04.880Z,8.00
2023-02-09T08:18:41.862Z,6.77
2023-02-09T08:21:13.050Z,8.93
2023-02-09T08:23:42.306Z,7.37
2023-02-09T08:26:12.129Z,8.90
2023-02-09T08:28:44.880Z,7.87
2023-02-09T08:31:13.854Z,8.03
2023-02-09T08:33:41.392Z,8.13
2023-02-09T08:36:08.980Z,7.83
2023-02-09T08:38:36.201Z,8.83
2023-02-09T08:41:07.066Z,9.07
2023-02-09T08:43:34.927Z,8.43
2023-02-09T08:46:07.565Z,8.13
2023-02-09T08:48:36.227Z,9.27
2023-02-09T08:51:03.707Z,9.50
2023-02-09T08:53:30.731Z,8.93
2023-02-09T08:55:57.876Z,7.77
2023-02-09T08:58:25.908Z,9.17
2023-02-09T09:00:57.206Z,8.27
2023-02-09T09:03:27.918Z,9.03
2023-02-09T09:06:06.324Z,8.80
2023-02-09T09:08:34.705Z,9.80
2023-02-09T09:11:01.982Z,7.97
2023-02-09T09:13:29.092Z,9.23
2023-02-09T09:15:56.324Z,10.67
2023-02-09T09:18:24.844Z,8.47
2023-02-09T09:20:52.761Z,9.67
2023-02-09T09:23:21.352Z,9.53
2023-02-09T09:25:48.686Z,9.63
2023-02-09T09:28:16.083Z,10.47
2023-02-09T09:30:43.213Z,8.83
2023-02-09T09:33:10.274Z,9.73
2023-02-09T09:35:37.318Z,9.77
2023-02-09T09:38:04.797Z,9.50
2023-02-09T09:40:34.077Z,9.33
2023-02-09T09:43:08.904Z,10.00
2023-02-09T09:45:38.989Z,10.57
2023-02-09T09:48:18.482Z,10.57
2023-02-09T09:50:46.551Z,9.90
2023-02-09T09:53:35.244Z,10.03
2023-02-09T09:56:07.957Z,9.50
2023-02-09T09:58:39.481Z,10.33
2023-02-09T10:01:10.324Z,10.40
2023-02-09T10:03:37.310Z,9.83
2023-02-09T10:06:15.118Z,9.90
2023-02-09T10:08:51.530Z,11.37
2023-02-09T10:11:24.414Z,10.37
2023-02-09T10:13:57.271Z,10.73
2023-02-09T10:16:35.023Z,11.43
2023-02-09T10:19:05.583Z,11.10
2023-02-09T10:21:36.302Z,11.30
2023-02-09T10:24:03.970Z,11.00
2023-02-09T10:26:34.883Z,11.73
2023-02-09T10:29:23.388Z,11.07
2023-02-09T10:31:55.638Z,11.13
2023-02-09T10:34:33.252Z,11.23
2023-02-09T10:37:18.800Z,10.90
2023-02-09T10:39:51.458Z,10.97
2023-02-09T10:42:24.500Z,10.47
2023-02-09T10:44:57.420Z,10.50
2023-02-09T10:47:29.856Z,10.60
2023-02-09T10:50:01.308Z,11.13
2023-02-09T10:52:34.617Z,11.70
2023-02-09T10:55:12.073Z,9.70
2023-02-09T10:57:39.629Z,10.97
2023-02-09T11:00:15.516Z,10.80
2023-02-09T11:02:51.190Z,11.03
2023-02-09T11:05:20.936Z,9.87
2023-02-09T11:08:03.394Z,10.90
2023-02-09T11:10:35.335Z,9.23
2023-02-09T11:13:03.085Z,9.60
2023-02-09T11:15:43.445Z,9.23
2023-02-09T11:18:17.270Z,11.07
2023-02-09T11:21:14.316Z,9.93
2023-02-09T11:24:02.425Z,9.93
2023-02-09T11:26:38.668Z,10.30
2023-02-09T11:29:30.261Z,10.17
2023-02-09T11:32:09.756Z,10.00
2023-02-09T11:34:51.765Z,9.30
2023-02-09T11:37:27.691Z,10.27
2023-02-09T11:40:15.756Z,10.93
2023-02-09T11:42:57.888Z,10.33
2023-02-09T11:45:45.943Z,10.23
2023-02-09T11:48:21.798Z,9.37
2023-02-09T11:51:03.970Z,10.27
2023-02-09T11:53:39.609Z,9.07
2023-02-09T11:56:11.199Z,10.27
2023-02-09T11:58:41.112Z,9.77
2023-02-09T12:01:45.002Z,10.00
2023-02-09T12:04:17.582Z,9.93
2023-02-09T12:06:54.589Z,10.10
2023-02-09T12:09:30.616Z,9.73
2023-02-09T12:12:09.582Z,10.10
2023-02-09T12:14:55.143Z,10.17
2023-02-09T12:17:53.490Z,10.33
2023-02-09T12:20:25.498Z,10.10
2023-02-09T12:23:24.774Z,9.77
2023-02-09T12:26:16.733Z,8.97
2023-02-09T12:29:20.709Z,9.00
2023-02-09T12:32:08.921Z,9.30
2023-02-09T12:34:43.536Z,10.33
2023-02-09T12:37:13.417Z,10.10
2023-02-09T12:40:10.255Z,10.43
2023-02-09T12:43:06.296Z,8.77
2023-02-09T12:45:36.154Z,8.67
2023-02-09T12:48:09.201Z,10.27
2023-02-09T12:50:52.952Z,9.67
2023-02-09T12:53:23.066Z,9.03
2023-02-09T12:56:04.852Z,9.07
2023-02-09T12:58:46.472Z,8.37
2023-02-09T13:01:15.740Z,10.00
2023-02-09T13:04:04.650Z,9.60
2023-02-09T13:06:43.543Z,9.70
2023-02-09T13:09:25.286Z,10.13
2023-02-09T13:12:01.935Z,10.60
2023-02-09T13:14:30.599Z,11.23
2023-02-09T13:17:38.256Z,9.97
2023-02-09T13:20:42.510Z,9.90
2023-02-09T13:23:32.444Z,9.97
2023-02-09T13:26:22.848Z,9.67
2023-02-09T13:29:20.954Z,9.40
2023-02-09T13:32:16.456Z,9.97
2023-02-09T13:35:02.569Z,10.73
2023-02-09T13:37:45.337Z,9.03
2023-02-09T13:40:21.255Z,9.83
2023-02-09T13:42:59.940Z,8.70
2023-02-09T13:45:28.080Z,10.03
2023-02-09T13:47:59.153Z,10.20
2023-02-09T13:50:31.850Z,9.63
2023-02-09T13:53:09.589Z,10.33
2023-02-09T13:55:39.993Z,9.40
2023-02-09T13:58:08.823Z,9.70
2023-02-09T14:00:47.245Z,9.50
2023-02-09T14:03:32.175Z,9.97
2023-02-09T14:06:08.157Z,11.43
2023-02-09T14:08:39.301Z,11.27
2023-02-09T14:11:42.580Z,12.17
2023-02-09T14:14:19.101Z,11.17
2023-02-09T14:16:53.539Z,11.23
2023-02-09T14:19:31.188Z,11.17
2023-02-09T14:21:58.353Z,11.73
2023-02-09T14:24:27.582Z,11.10
2023-02-09T14:27:16.360Z,9.30
2023-02-09T14:29:47.134Z,10.30
2023-02-09T14:32:35.311Z,10.17
2023-02-09T14:35:16.979Z,9.83
2023-02-09T14:37:45.597Z,11.07
2023-02-09T14:40:27.905Z,9.73
2023-02-09T14:42:59.130Z,11.13
2023-02-09T14:45:26.076Z,10.33
2023-02-09T14:47:52.989Z,10.70
2023-02-09T14:50:22.078Z,10.97
2023-02-09T14:52:53.767Z,10.30
2023-02-09T14:55:29.709Z,10.47
2023-02-09T14:57:56.903Z,11.20
2023-02-09T15:00:26.357Z,10.20
2023-02-09T15:02:54.070Z,10.50
2023-02-09T15:05:22.562Z,10.60
2023-02-09T15:07:56.567Z,11.67
2023-02-09T15:10:30.588Z,10.83
2023-02-09T15:12:58.570Z,10.47
2023-02-09T15:15:26.779Z,10.63
2023-02-09T15:17:55.322Z,10.37
2023-02-09T15:20:26.619Z,10.80
2023-02-09T15:22:54.745Z,11.17
2023-02-09T15:25:23.540Z,12.00
2023-02-09T15:27:52.679Z,11.47
2023-02-09T15:30:26.121Z,10.80
2023-02-09T15:32:53.719Z,10.57
2023-02-09T15:35:23.658Z,10.77
2023-02-09T15:37:57.806Z,10.27
2023-02-09T15:41:04.684Z,11.70
2023-02-09T15:43:50.193Z,10.93
2023-02-09T15:46:35.563Z,11.10
2023-02-09T15:49:03.417Z,12.10
2023-02-09T15:51:34.087Z,11.27
2023-02-09T15:54:05.613Z,10.87
2023-02-09T15:56:33.531Z,11.07
2023-02-09T15:59:03.852Z,12.20
2023-02-09T16:01:34.684Z,11.93
2023-02-09T16:04:13.410Z,12.33
2023-02-09T16:06:45.651Z,12.07
2023-02-09T16:09:20.695Z,11.37
2023-02-09T16:11:48.648Z,11.30
2023-02-09T16:14:21.516Z,11.43
2023-02-09T16:16:49.560Z,11.83
2023-02-09T16:19:17.091Z,10.70
2023-02-09T16:21:53.111Z,12.20
2023-02-09T16:24:31.469Z,10.90
2023-02-09T16:27:00.710Z,12.27
2023-02-09T16:29:27.916Z,12.50
2023-02-09T16:31:55.047Z,11.97
2023-02-09T16:34:22.100Z,11.90
2023-02-09T16:36:49.978Z,13.10
2023-02-09T16:39:21.823Z,12.07
2023-02-09T16:41:52.834Z,11.70
2023-02-09T16:44:21.302Z,11.40
2023-02-09T16:46:50.789Z,12.87
2023-02-09T16:49:39.433Z,12.47
2023-02-09T16:52:11.477Z,12.60
2023-02-09T16:54:43.625Z,13.20
2023-02-09T16:57:13.203Z,13.27
2023-02-09T16:59:40.137Z,14.77
2023-02-09T17:02:27.697Z,15.07
2023-02-09T17:04:54.952Z,14.40
2023-02-09T17:07:24.670Z,15.27
2023-02-09T17:09:51.784Z,15.20
2023-02-09T17:12:18.716Z,15.60
2023-02-09T17:14:45.771Z,15.00
2023-02-09T17:17:19.281Z,15.13
2023-02-09T17:19:48.382Z,15.70
2023-02-09T17:22:16.194Z,16.97
2023-02-09T17:24:43.231Z,15.83
2023-02-09T17:27:10.425Z,16.83
2023-02-09T17:29:37.468Z,17.57
2023-02-09T17:32:05.422Z,17.80
2023-02-09T17:34:32.578Z,17.57
2023-02-09T17:36:59.603Z,17.80
2023-02-09T17:39:26.656Z,16.60
2023-02-09T17:41:53.668Z,16.43
2023-02-09T17:44:39.030Z,15.73
2023-02-09T17:47:19.577Z,16.07
2023-02-09T17:49:46.887Z,16.07
2023-02-09T17:52:18.396Z,15.83
2023-02-09T17:54:45.853Z,16.37
2023-02-09T17:57:15.123Z,15.13
2023-02-09T17:59:42.460Z,16.47
2023-02-09T18:02:16.002Z,16.47
2023-02-09T18:04:43.267Z,14.63
2023-02-09T18:07:10.793Z,16.40
2023-02-09T18:09:37.917Z,15.03
2023-02-09T18:12:29.139Z,14.97
2023-02-09T18:14:56.186Z,15.03
2023-02-09T18:17:23.197Z,16.63
2023-02-09T18:19:50.399Z,17.30
2023-02-09T18:22:19.827Z,16.73
2023-02-09T18:24:46.969Z,16.00
2023-02-09T18:27:21.025Z,15.10
2023-02-09T18:29:48.106Z,16.13
2023-02-09T18:32:16.323Z,15.50
2023-02-09T18:34:43.622Z,15.13
2023-02-09T18:37:10.613Z,15.17
2023-02-09T18:39:40.792Z,15.43
2023-02-09T18:42:07.912Z,16.10
2023-02-09T18:44:35.025Z,16.23
2023-02-09T18:47:02.110Z,16.87
2023-02-09T18:49:29.899Z,16.40
2023-02-09T18:51:58.803Z,16.50
2023-02-09T18:54:28.324Z,15.70
2023-02-09T18:56:55.599Z,17.30
2023-02-09T18:59:22.684Z,17.17
2023-02-09T19:01:50.722Z,16.93
2023-02-09T19:04:18.663Z,16.80
2023-02-09T19:06:45.637Z,15.60
2023-02-09T19:09:12.620Z,14.97
2023-02-09T19:11:39.658Z,16.30
2023-02-09T19:14:25.039Z,16.33
2023-02-09T19:16:52.069Z,15.90
2023-02-09T19:19:20.051Z,16.60
2023-02-09T19:21:52.205Z,15.50
2023-02-09T19:24:19.486Z,16.33
2023-02-09T19:26:46.376Z,15.63
2023-02-09T19:29:14.032Z,15.97
2023-02-09T19:31:41.089Z,16.73
2023-02-09T19:34:08.146Z,16.60
2023-02-09T19:36:35.166Z,16.87
2023-02-09T19:39:02.154Z,16.87
2023-02-09T19:41:29.202Z,17.07
2023-02-09T19:43:57.885Z,16.67
2023-02-09T19:46:25.609Z,16.63
2023-02-09T19:48:53.895Z,16.63
2023-02-09T19:51:21.641Z,16.67
2023-02-09T19:53:48.948Z,16.57
2023-02-09T19:56:17.379Z,17.40
2023-02-09T19:58:44.852Z,17.23
2023-02-09T20:01:12.793Z,17.57
2023-02-09T20:03:40.236Z,18.17
2023-02-09T20:06:09.531Z,17.80
2023-02-09T20:08:38.020Z,17.73
2023-02-09T20:11:06.549Z,18.60
2023-02-09T20:13:34.785Z,18.70
2023-02-09T20:16:06.140Z,19.23
2023-02-09T20:18:33.191Z,18.67
2023-02-09T20:21:00.377Z,19.73
2023-02-09T20:23:27.540Z,18.47
2023-02-09T20:25:54.551Z,19.97
2023-02-09T20:28:21.614Z,20.20
2023-02-09T20:30:48.981Z,20.27
2023-02-09T20:33:16.501Z,17.77
2023-02-09T20:35:45.130Z,18.90
2023-02-09T20:38:12.873Z,20.13
2023-02-09T20:40:43.396Z,18.30
2023-02-09T20:43:31.398Z,18.90
2023-02-09T20:46:16.918Z,19.40
2023-02-09T20:48:43.856Z,20.03
2023-02-09T20:51:10.985Z,19.70
2023-02-09T20:53:38.054Z,19.27
2023-02-09T20:56:05.301Z,19.53
2023-02-09T20:58:32.276Z,19.17
2023-02-09T21:00:59.286Z,20.03
2023-02-09T21:03:26.418Z,20.00
2023-02-09T21:05:53.423Z,20.27
2023-02-09T21:08:21.445Z,22.13
2023-02-09T21:10:55.797Z,21.73
2023-02-09T21:13:22.917Z,22.03
2023-02-09T21:15:50.803Z,21.10
2023-02-09T21:18:18.422Z,24.10
2023-02-09T21:20:45.960Z,25.47
2023-02-09T21:23:13.488Z,23.73
2023-02-09T21:25:40.493Z,24.00
2023-02-09T21:28:07.572Z,23.30
2023-02-09T21:30:34.682Z,24.53
2023-02-09T21:33:02.000Z,26.20
2023-02-09T21:35:29.108Z,25.57
2023-02-09T21:37:56.158Z,24.80
2023-02-09T21:40:23.212Z,25.10
2023-02-09T21:42:51.021Z,24.10
2023-02-09T21:45:18.137Z,25.07
2023-02-09T21:47:45.285Z,24.00
2023-02-09T21:50:13.305Z,23.33
2023-02-09T21:52:40.415Z,22.33
2023-02-09T21:55:08.416Z,21.10
2023-02-09T21:57:36.223Z,22.70
2023-02-09T22:00:05.571Z,21.93
2023-02-09T22:02:32.646Z,22.80
2023-02-09T22:04:59.602Z,22.97
2023-02-09T22:07:27.018Z,23.60
2023-02-09T22:09:54.023Z,21.10
2023-02-09T22:12:21.120Z,22.93
2023-02-09T22:14:48.112Z,21.10
2023-02-09T22:17:15.193Z,22.20
2023-02-09T22:19:42.796Z,21.17
2023-02-09T22:22:10.720Z,21.33
2023-02-09T22:24:38.078Z,21.13
2023-02-09T22:27:05.624Z,21.63
2023-02-09T22:29:35.266Z,22.97
2023-02-09T22:32:02.289Z,23.17
2023-02-09T22:34:29.442Z,24.33
2023-02-09T22:36:56.533Z,23.17
2023-02-09T22:39:23.540Z,24.67
2023-02-09T22:41:50.657Z,24.27
2023-02-09T22:44:18.132Z,25.33
2023-02-09T22:46:46.424Z,27.30
2023-02-09T22:49:18.969Z,27.17
2023-02-09T22:51:47.672Z,26.47
2023-02-09T22:54:16.209Z,24.83
2023-02-09T22:56:43.562Z,24.20
2023-02-09T22:59:12.878Z,27.50
2023-02-09T23:01:40.196Z,27.33
2023-02-09T23:04:07.302Z,26.03
2023-02-09T23:06:34.562Z,26.13
2023-02-09T23:09:03.633Z,26.33
2023-02-09T23:11:31.503Z,25.23
2023-02-09T23:14:09.173Z,24.90
2023-02-09T23:16:38.155Z,26.50
2023-02-09T23:19:07.256Z,26.20
2023-02-09T23:21:37.378Z,27.97
2023-02-09T23:24:05.420Z,26.10
2023-02-09T23:26:32.912Z,26.60
2023-02-09T23:29:01.827Z,24.80
2023-02-09T23:31:29.243Z,24.13
2023-02-09T23:33:56.427Z,24.90
2023-02-09T23:36:26.319Z,24.87
2023-02-09T23:38:58.415Z,25.97
2023-02-09T23:41:26.306Z,24.93
2023-02-09T23:43:53.404Z,26.23
2023-02-09T23:46:23.000Z,25.60
2023-02-09T23:48:53.315Z,24.87
2023-02-09T23:51:26.730Z,26.03
2023-02-09T23:53:56.125Z,25.47
2023-02-09T23:56:23.796Z,25.23
2023-02-09T23:58:52.532Z,25.07
